createdAt,value
2023-02-11T00:01:45.426Z,6.72
2023-02-11T00:04:13.765Z,6.70
2023-02-11T00:06:42.103Z,6.70
2023-02-11T00:09:12.703Z,6.74
2023-02-11T00:11:40.758Z,6.74
2023-02-11T00:14:10.682Z,6.69
2023-02-11T00:16:38.741Z,6.70
2023-02-11T00:19:07.068Z,6.72
2023-02-11T00:21:35.912Z,6.73
2023-02-11T00:24:04.590Z,6.70
2023-02-11T00:26:35.319Z,6.73
2023-02-11T00:29:04.867Z,6.74
2023-02-11T00:31:33.855Z,6.70
2023-02-11T00:34:02.228Z,6.74
2023-02-11T00:36:31.268Z,6.73
2023-02-11T00:39:03.071Z,6.76
2023-02-11T00:41:31.811Z,6.74
2023-02-11T00:44:01.275Z,6.73
2023-02-11T00:46:31.185Z,6.73
2023-02-11T00:49:00.419Z,6.77
2023-02-11T00:51:29.324Z,6.77
2023-02-11T00:54:00.252Z,6.80
2023-02-11T00:56:28.245Z,6.79
2023-02-11T00:58:57.333Z,6.73
2023-02-11T01:01:25.667Z,6.73
2023-02-11T01:03:53.676Z,6.69
2023-02-11T01:06:24.319Z,6.69
2023-02-11T01:08:52.408Z,6.72
2023-02-11T01:11:21.368Z,6.73
2023-02-11T01:13:55.873Z,6.69
2023-02-11T01:16:24.004Z,6.66
2023-02-11T01:18:54.175Z,6.67
2023-02-11T01:21:22.200Z,6.64
2023-02-11T01:23:53.247Z,6.67
2023-02-11T01:26:21.375Z,6.69
2023-02-11T01:28:49.727Z,6.66
2023-02-11T01:31:17.695Z,6.67
2023-02-11T01:33:45.712Z,6.69
2023-02-11T01:36:13.745Z,6.69
2023-02-11T01:38:42.045Z,6.70
2023-02-11T01:41:12.257Z,6.69
2023-02-11T01:43:43.228Z,6.64
2023-02-11T01:46:21.782Z,6.67
2023-02-11T01:49:02.573Z,6.67
2023-02-11T01:51:39.305Z,6.66
2023-02-11T01:54:28.820Z,6.67
2023-02-11T01:57:17.521Z,6.67
2023-02-11T01:59:56.375Z,6.70
2023-02-11T02:02:47.805Z,6.69
2023-02-11T02:05:32.257Z,6.64
2023-02-11T02:08:32.193Z,6.63
2023-02-11T02:11:02.544Z,6.60
2023-02-11T02:13:32.796Z,6.63
2023-02-11T02:16:14.706Z,6.57
2023-02-11T02:19:00.531Z,6.57
2023-02-11T02:22:06.572Z,6.60
2023-02-11T02:24:51.586Z,6.58
2023-02-11T02:27:37.352Z,6.53
2023-02-11T02:30:37.090Z,6.53
2023-02-11T02:33:22.794Z,6.52
2023-02-11T02:36:09.763Z,6.52
2023-02-11T02:38:48.792Z,6.50
2023-02-11T02:41:23.671Z,6.49
2023-02-11T02:43:52.571Z,6.47
2023-02-11T02:46:26.802Z,6.46
2023-02-11T02:48:56.043Z,6.49
2023-02-11T02:51:45.395Z,6.43
2023-02-11T02:55:01.641Z,6.47
2023-02-11T02:57:47.148Z,6.46
2023-02-11T03:00:37.856Z,6.45
2023-02-11T03:03:36.988Z,6.46
2023-02-11T03:06:13.550Z,6.47
2023-02-11T03:09:14.541Z,6.47
2023-02-11T03:11:42.393Z,6.49
2023-02-11T03:14:14.900Z,6.49
2023-02-11T03:16:45.616Z,6.46
2023-02-11T03:19:27.394Z,6.49
2023-02-11T03:21:56.766Z,6.45
2023-02-11T03:24:37.030Z,6.50
2023-02-11T03:27:19.489Z,6.53
2023-02-11T03:30:15.464Z,6.52
2023-02-11T03:32:53.782Z,6.57
2023-02-11T03:35:41.552Z,6.57
2023-02-11T03:38:22.568Z,6.57
2023-02-11T03:40:51.577Z,6.57
2023-02-11T03:43:38.778Z,6.56
2023-02-11T03:46:07.628Z,6.54
2023-02-11T03:48:40.010Z,6.53
2023-02-11T03:51:10.268Z,6.53
2023-02-11T03:53:41.192Z,6.50
2023-02-11T03:56:14.337Z,6.52
2023-02-11T03:58:44.026Z,6.54
2023-02-11T04:01:12.144Z,6.52
2023-02-11T04:03:40.108Z,6.56
2023-02-11T04:06:08.258Z,6.53
2023-02-11T04:08:36.527Z,6.56
2023-02-11T04:11:04.399Z,6.54
2023-02-11T04:13:32.876Z,6.58
2023-02-11T04:16:00.813Z,6.56
2023-02-11T04:18:28.911Z,6.56
2023-02-11T04:20:56.816Z,6.58
2023-02-11T04:23:24.710Z,6.56
2023-02-11T04:25:52.861Z,6.56
2023-02-11T04:28:21.194Z,6.56
2023-02-11T04:30:50.899Z,6.54
2023-02-11T04:33:18.884Z,6.57
2023-02-11T04:35:46.964Z,6.57
2023-02-11T04:38:15.371Z,6.58
2023-02-11T04:40:43.334Z,6.58
2023-02-11T04:43:13.704Z,6.57
2023-02-11T04:45:41.696Z,6.62
2023-02-11T04:48:11.565Z,6.62
2023-02-11T04:50:39.460Z,6.66
2023-02-11T04:53:07.260Z,6.63
2023-02-11T04:55:35.126Z,6.60
2023-02-11T04:58:02.929Z,6.62
2023-02-11T05:00:30.822Z,6.64
2023-02-11T05:02:58.753Z,6.64
2023-02-11T05:05:26.668Z,6.64
2023-02-11T05:07:54.573Z,6.63
2023-02-11T05:10:22.532Z,6.66
2023-02-11T05:12:50.633Z,6.64
2023-02-11T05:15:18.558Z,6.66
2023-02-11T05:17:46.696Z,6.63
2023-02-11T05:20:14.710Z,6.67
2023-02-11T05:22:42.448Z,6.67
2023-02-11T05:25:10.265Z,6.64
2023-02-11T05:27:38.136Z,6.69
2023-02-11T05:30:07.033Z,6.70
2023-02-11T05:32:35.131Z,6.66
2023-02-11T05:35:03.016Z,6.64
2023-02-11T05:37:31.295Z,6.67
2023-02-11T05:39:59.395Z,6.63
2023-02-11T05:42:27.272Z,6.64
2023-02-11T05:44:55.121Z,6.60
2023-02-11T05:47:22.955Z,6.70
2023-02-11T05:49:51.592Z,6.66
2023-02-11T05:52:22.936Z,6.66
2023-02-11T05:54:51.465Z,6.70
2023-02-11T05:57:21.650Z,6.67
2023-02-11T05:59:52.659Z,6.69
2023-02-11T06:02:20.706Z,6.72
2023-02-11T06:04:48.531Z,6.70
2023-02-11T06:07:17.597Z,6.72
2023-02-11T06:09:48.188Z,6.67
2023-02-11T06:12:16.020Z,6.67
2023-02-11T06:14:43.999Z,6.70
2023-02-11T06:17:13.421Z,6.69
2023-02-11T06:19:43.295Z,6.66
2023-02-11T06:22:11.335Z,6.67
2023-02-11T06:24:58.928Z,6.67
2023-02-11T06:27:27.282Z,6.67
2023-02-11T06:29:55.113Z,6.70
2023-02-11T06:35:15.024Z,6.73
2023-02-11T06:37:43.233Z,6.70
2023-02-11T06:40:12.079Z,6.73
2023-02-11T06:42:40.276Z,6.74
2023-02-11T06:45:11.070Z,6.76
2023-02-11T06:47:40.210Z,6.77
2023-02-11T06:50:10.874Z,6.77
2023-02-11T06:52:40.088Z,6.79
2023-02-11T06:55:08.328Z,6.80
2023-02-11T06:57:36.191Z,6.83
2023-02-11T07:00:05.898Z,6.80
2023-02-11T07:02:33.990Z,6.79
2023-02-11T07:05:01.958Z,6.83
2023-02-11T07:07:32.392Z,6.80
2023-02-11T07:10:03.973Z,6.81
2023-02-11T07:12:34.875Z,6.84
2023-02-11T07:15:06.426Z,6.83
2023-02-11T07:17:38.963Z,6.83
2023-02-11T07:20:09.598Z,6.83
2023-02-11T07:22:37.556Z,6.84
2023-02-11T07:25:05.831Z,6.85
2023-02-11T07:27:33.758Z,6.85
2023-02-11T07:30:01.717Z,6.91
2023-02-11T07:32:29.663Z,6.92
2023-02-11T07:35:00.568Z,6.97
2023-02-11T07:37:28.693Z,6.97
2023-02-11T07:39:56.569Z,7.04
2023-02-11T07:42:24.424Z,7.00
2023-02-11T07:44:52.371Z,7.05
2023-02-11T07:47:20.361Z,7.07
2023-02-11T07:49:48.256Z,7.09
2023-02-11T07:52:18.547Z,7.09
2023-02-11T07:54:49.320Z,7.15
2023-02-11T07:57:17.481Z,7.21
2023-02-11T07:59:45.406Z,7.23
2023-02-11T08:02:13.339Z,7.23
2023-02-11T08:04:41.238Z,7.29
2023-02-11T08:07:09.267Z,7.28
2023-02-11T08:09:37.053Z,7.28
2023-02-11T08:12:05.134Z,7.32
2023-02-11T08:14:33.134Z,7.39
2023-02-11T08:17:01.106Z,7.36
2023-02-11T08:19:29.100Z,7.38
2023-02-11T08:21:59.618Z,7.40
2023-02-11T08:24:27.471Z,7.42
2023-02-11T08:26:55.440Z,7.43
2023-02-11T08:29:23.933Z,7.47
2023-02-11T08:31:52.297Z,7.52
2023-02-11T08:34:23.297Z,7.53
2023-02-11T08:36:51.293Z,7.55
2023-02-11T08:39:22.287Z,7.56
2023-02-11T08:41:59.700Z,7.59
2023-02-11T08:44:27.695Z,7.66
2023-02-11T08:46:55.764Z,7.75
2023-02-11T08:49:26.145Z,7.80
2023-02-11T08:52:03.767Z,7.83
2023-02-11T08:54:32.142Z,7.85
2023-02-11T08:57:01.872Z,7.88
2023-02-11T08:59:29.873Z,7.94
2023-02-11T09:02:00.663Z,7.90
2023-02-11T09:04:32.579Z,7.92
2023-02-11T09:07:00.613Z,7.94
2023-02-11T09:09:28.401Z,8.05
2023-02-11T09:11:57.396Z,8.06
2023-02-11T09:14:25.484Z,8.12
2023-02-11T09:16:54.085Z,8.16
2023-02-11T09:19:25.059Z,8.22
2023-02-11T09:21:52.933Z,8.32
2023-02-11T09:24:20.934Z,8.45
2023-02-11T09:26:49.836Z,8.47
2023-02-11T09:29:17.869Z,8.52
2023-02-11T09:31:45.961Z,8.49
2023-02-11T09:34:16.996Z,8.56
2023-02-11T09:36:44.941Z,8.56
2023-02-11T09:39:18.431Z,8.59
2023-02-11T09:42:20.425Z,8.63
2023-02-11T09:44:48.900Z,8.64
2023-02-11T09:47:46.790Z,8.70
2023-02-11T09:50:22.538Z,8.74
2023-02-11T09:52:58.138Z,8.77
2023-02-11T09:55:37.822Z,8.89
2023-02-11T09:58:13.684Z,8.97
2023-02-11T10:00:58.844Z,8.95
2023-02-11T10:04:00.329Z,9.11
2023-02-11T10:06:48.220Z,9.18
2023-02-11T10:09:41.030Z,9.25
2023-02-11T10:12:12.611Z,9.26
2023-02-11T10:15:02.245Z,9.38
2023-02-11T10:18:04.271Z,9.51
2023-02-11T10:20:35.041Z,9.54
2023-02-11T10:23:16.664Z,9.63
2023-02-11T10:25:53.085Z,9.70
2023-02-11T10:28:44.546Z,9.73
2023-02-11T10:31:21.374Z,9.83
2023-02-11T10:34:03.210Z,9.81
2023-02-11T10:36:36.084Z,9.85
2023-02-11T10:39:23.088Z,9.85
2023-02-11T10:41:59.260Z,9.88
2023-02-11T10:44:34.723Z,9.88
2023-02-11T10:47:37.569Z,9.88
2023-02-11T10:50:21.732Z,9.90
2023-02-11T10:52:52.496Z,9.95
2023-02-11T10:55:35.362Z,9.90
2023-02-11T10:58:09.372Z,9.94
2023-02-11T11:00:40.670Z,9.99
2023-02-11T11:03:32.082Z,9.95
2023-02-11T11:06:02.748Z,9.98
2023-02-11T11:08:40.952Z,9.99
2023-02-11T11:11:14.958Z,9.99
2023-02-11T11:14:01.286Z,9.97
2023-02-11T11:16:32.350Z,9.97
2023-02-11T11:19:09.210Z,9.94
2023-02-11T11:21:58.876Z,9.91
2023-02-11T11:24:34.415Z,9.91
2023-02-11T11:27:04.309Z,10.01
2023-02-11T11:29:51.134Z,10.04
2023-02-11T11:32:37.092Z,10.08
2023-02-11T11:35:20.489Z,10.13
2023-02-11T11:38:01.652Z,10.13
2023-02-11T11:40:32.585Z,10.28
2023-02-11T11:43:12.618Z,10.23
2023-02-11T11:45:54.701Z,10.42
2023-02-11T11:48:30.456Z,10.30
2023-02-11T11:51:02.150Z,10.36
2023-02-11T11:53:42.051Z,10.42
2023-02-11T11:56:22.761Z,10.47
2023-02-11T11:58:50.986Z,10.40
2023-02-11T12:01:40.331Z,10.30
2023-02-11T12:04:33.131Z,10.19
2023-02-11T12:07:36.947Z,10.11
2023-02-11T12:10:26.565Z,10.22
2023-02-11T12:13:03.400Z,10.36
2023-02-11T12:15:57.078Z,10.40
2023-02-11T12:19:00.491Z,10.39
2023-02-11T12:22:22.873Z,10.47
2023-02-11T12:25:16.602Z,10.32
2023-02-11T12:28:21.686Z,10.52
2023-02-11T12:31:25.559Z,10.66
2023-02-11T12:34:02.177Z,10.70
2023-02-11T12:36:55.340Z,10.57
2023-02-11T12:40:14.707Z,10.66
2023-02-11T12:43:18.455Z,10.77
2023-02-11T12:46:16.464Z,10.80
2023-02-11T12:49:23.751Z,10.91
2023-02-11T12:52:17.745Z,11.11
2023-02-11T12:55:04.208Z,11.22
2023-02-11T12:57:39.401Z,11.21
2023-02-11T13:00:42.592Z,11.28
2023-02-11T13:03:18.424Z,11.38
2023-02-11T13:06:01.891Z,11.40
2023-02-11T13:08:45.969Z,11.35
2023-02-11T13:11:22.891Z,11.26
2023-02-11T13:13:50.898Z,11.32
2023-02-11T13:16:44.947Z,11.29
2023-02-11T13:19:28.642Z,11.35
2023-02-11T13:22:30.034Z,11.42
2023-02-11T13:25:29.022Z,11.46
2023-02-11T13:28:05.400Z,11.47
2023-02-11T13:30:40.811Z,11.53
2023-02-11T13:33:30.148Z,11.56
2023-02-11T13:35:57.999Z,11.52
2023-02-11T13:38:29.498Z,11.53
2023-02-11T13:41:18.077Z,11.52
2023-02-11T13:43:56.804Z,11.74
2023-02-11T13:46:27.611Z,11.76
2023-02-11T13:48:56.815Z,11.83
2023-02-11T13:51:42.872Z,11.78
2023-02-11T13:54:39.085Z,11.77
2023-02-11T13:57:22.360Z,11.77
2023-02-11T13:59:55.841Z,11.73
2023-02-11T14:02:55.838Z,11.71
2023-02-11T14:05:48.608Z,11.55
2023-02-11T14:08:39.540Z,11.36
2023-02-11T14:11:33.328Z,11.15
2023-02-11T14:14:14.895Z,11.08
2023-02-11T14:17:06.803Z,10.98
2023-02-11T14:19:35.867Z,10.90
2023-02-11T14:22:26.068Z,10.74
2023-02-11T14:25:02.335Z,10.63
2023-02-11T14:27:56.751Z,10.55
2023-02-11T14:30:54.808Z,10.56
2023-02-11T14:33:28.993Z,10.60
2023-02-11T14:36:25.608Z,10.59
2023-02-11T14:39:15.340Z,10.60
2023-02-11T14:41:48.651Z,10.67
2023-02-11T14:44:31.409Z,10.66
2023-02-11T14:46:59.715Z,10.64
2023-02-11T14:49:37.092Z,10.74
2023-02-11T14:52:14.168Z,10.75
2023-02-11T14:54:44.498Z,10.81
2023-02-11T14:57:33.595Z,10.90
2023-02-11T15:00:19.715Z,10.93
2023-02-11T15:02:48.071Z,10.93
2023-02-11T15:05:28.885Z,10.91
2023-02-11T15:08:07.380Z,10.97
2023-02-11T15:10:42.745Z,11.01
2023-02-11T15:13:20.098Z,11.05
2023-02-11T15:15:50.958Z,11.08
2023-02-11T15:18:24.126Z,11.05
2023-02-11T15:21:15.774Z,11.05
2023-02-11T15:24:00.727Z,10.97
2023-02-11T15:26:29.966Z,10.94
2023-02-11T15:28:59.886Z,10.94
2023-02-11T15:31:34.998Z,10.83
2023-02-11T15:34:08.876Z,10.71
2023-02-11T15:36:37.750Z,10.66
2023-02-11T15:39:36.746Z,10.53
2023-02-11T15:42:25.573Z,10.47
2023-02-11T15:45:32.998Z,10.49
2023-02-11T15:48:26.849Z,10.49
2023-02-11T15:51:12.911Z,10.43
2023-02-11T15:53:48.149Z,10.43
2023-02-11T15:56:29.791Z,10.42
2023-02-11T15:59:00.639Z,10.38
2023-02-11T16:01:37.863Z,10.35
2023-02-11T16:04:15.789Z,10.36
2023-02-11T16:06:47.632Z,10.35
2023-02-11T16:09:58.493Z,10.30
2023-02-11T16:12:34.843Z,10.26
2023-02-11T16:15:30.312Z,10.25
2023-02-11T16:17:58.485Z,10.26
2023-02-11T16:20:26.664Z,10.21
2023-02-11T16:22:55.116Z,10.21
2023-02-11T16:25:27.701Z,10.22
2023-02-11T16:27:55.859Z,10.21
2023-02-11T16:30:34.841Z,10.18
2023-02-11T16:33:05.502Z,10.12
2023-02-11T16:35:36.329Z,10.09
2023-02-11T16:38:06.398Z,10.05
2023-02-11T16:40:34.328Z,10.01
2023-02-11T16:43:02.293Z,9.99
2023-02-11T16:45:30.375Z,9.93
2023-02-11T16:47:58.389Z,9.88
2023-02-11T16:50:26.658Z,9.84
2023-02-11T16:52:55.161Z,9.84
2023-02-11T16:55:23.130Z,9.81
2023-02-11T16:57:50.974Z,9.80
2023-02-11T17:00:20.080Z,9.75
2023-02-11T17:02:48.121Z,9.71
2023-02-11T17:05:23.153Z,9.71
2023-02-11T17:07:51.538Z,9.67
2023-02-11T17:10:22.814Z,9.67
2023-02-11T17:12:52.518Z,9.67
2023-02-11T17:15:20.331Z,9.67
2023-02-11T17:17:48.130Z,9.60
2023-02-11T17:20:16.639Z,9.58
2023-02-11T17:22:44.458Z,9.57
2023-02-11T17:25:14.706Z,9.50
2023-02-11T17:27:43.043Z,9.49
2023-02-11T17:30:16.177Z,9.49
2023-02-11T17:32:44.427Z,9.46
2023-02-11T17:35:12.733Z,9.46
2023-02-11T17:37:40.888Z,9.50
2023-02-11T17:40:09.401Z,9.47
2023-02-11T17:42:37.243Z,9.44
2023-02-11T17:45:05.582Z,9.42
2023-02-11T17:47:33.538Z,9.39
2023-02-11T17:50:03.124Z,9.39
2023-02-11T17:52:31.156Z,9.39
2023-02-11T17:54:59.203Z,9.35
2023-02-11T17:57:29.595Z,9.35
2023-02-11T17:59:57.820Z,9.33
2023-02-11T18:02:25.873Z,9.35
2023-02-11T18:04:59.713Z,9.32
2023-02-11T18:07:27.679Z,9.29
2023-02-11T18:09:56.563Z,9.30
2023-02-11T18:12:27.547Z,9.28
2023-02-11T18:14:58.346Z,9.26
2023-02-11T18:17:53.256Z,9.25
2023-02-11T18:20:21.389Z,9.26
2023-02-11T18:22:49.359Z,9.28
2023-02-11T18:25:18.737Z,9.22
2023-02-11T18:27:46.568Z,9.19
2023-02-11T18:30:20.363Z,9.19
2023-02-11T18:32:48.468Z,9.19
2023-02-11T18:35:16.505Z,9.16
2023-02-11T18:37:44.451Z,9.15
2023-02-11T18:40:13.661Z,9.12
2023-02-11T18:42:46.644Z,9.15
2023-02-11T18:45:15.451Z,9.14
2023-02-11T18:47:43.834Z,9.18
2023-02-11T18:50:13.943Z,9.15
2023-02-11T18:52:44.464Z,9.07
2023-02-11T18:55:14.523Z,9.12
2023-02-11T18:57:43.159Z,9.10
2023-02-11T19:00:17.584Z,9.04
2023-02-11T19:02:55.027Z,9.05
2023-02-11T19:05:23.553Z,9.04
2023-02-11T19:07:51.551Z,9.00
2023-02-11T19:10:20.428Z,8.98
2023-02-11T19:12:48.909Z,9.00
2023-02-11T19:15:20.775Z,8.97
2023-02-11T19:17:49.698Z,8.97
2023-02-11T19:20:18.479Z,8.95
2023-02-11T19:22:46.360Z,8.92
2023-02-11T19:25:17.463Z,8.95
2023-02-11T19:27:45.466Z,8.94
2023-02-11T19:30:13.799Z,8.91
2023-02-11T19:32:41.886Z,8.95
2023-02-11T19:35:09.940Z,8.94
2023-02-11T19:37:38.005Z,8.92
2023-02-11T19:40:07.421Z,8.89
2023-02-11T19:42:35.667Z,8.89
2023-02-11T19:45:03.868Z,8.83
2023-02-11T19:47:31.845Z,8.87
2023-02-11T19:50:00.254Z,8.87
2023-02-11T19:52:28.393Z,8.85
2023-02-11T19:54:56.439Z,8.87
2023-02-11T19:57:24.558Z,8.85
2023-02-11T19:59:54.906Z,8.84
2023-02-11T20:02:23.400Z,8.85
2023-02-11T20:04:51.554Z,8.83
2023-02-11T20:07:19.778Z,8.78
2023-02-11T20:09:47.669Z,8.80
2023-02-11T20:12:15.701Z,8.80
2023-02-11T20:14:43.747Z,8.78
2023-02-11T20:17:11.791Z,8.78
2023-02-11T20:19:39.726Z,8.77
2023-02-11T20:22:20.114Z,8.74
2023-02-11T20:24:49.212Z,8.70
2023-02-11T20:27:19.740Z,8.70
2023-02-11T20:29:48.006Z,8.70
2023-02-11T20:32:16.091Z,8.68
2023-02-11T20:34:44.232Z,8.68
2023-02-11T20:37:12.816Z,8.68
2023-02-11T20:39:41.987Z,8.67
2023-02-11T20:42:11.924Z,8.70
2023-02-11T20:44:40.632Z,8.66
2023-02-11T20:47:08.586Z,8.64
2023-02-11T20:49:36.463Z,8.61
2023-02-11T20:52:04.426Z,8.63
2023-02-11T20:54:32.547Z,8.59
2023-02-11T20:57:00.480Z,8.50
2023-02-11T20:59:28.439Z,8.53
2023-02-11T21:01:57.459Z,8.52
2023-02-11T21:04:28.180Z,8.50
2023-02-11T21:06:59.546Z,8.49
2023-02-11T21:09:30.048Z,8.42
2023-02-11T21:11:58.344Z,8.46
2023-02-11T21:14:27.407Z,8.43
2023-02-11T21:16:55.697Z,8.43
2023-02-11T21:19:23.818Z,8.43
2023-02-11T21:21:56.326Z,8.40
2023-02-11T21:24:25.015Z,8.42
2023-02-11T21:26:55.863Z,8.36
2023-02-11T21:29:23.985Z,8.35
2023-02-11T21:31:52.121Z,8.35
2023-02-11T21:34:20.677Z,8.38
2023-02-11T21:36:51.135Z,8.35
2023-02-11T21:39:20.383Z,8.32
2023-02-11T21:41:48.601Z,8.32
2023-02-11T21:44:16.553Z,8.32
2023-02-11T21:46:45.005Z,8.28
2023-02-11T21:49:13.334Z,8.26
2023-02-11T21:51:41.297Z,8.22
2023-02-11T21:54:11.045Z,8.24
2023-02-11T21:56:39.064Z,8.19
2023-02-11T21:59:06.976Z,8.21
2023-02-11T22:01:37.724Z,8.24
2023-02-11T22:04:05.938Z,8.24
2023-02-11T22:06:35.036Z,8.24
2023-02-11T22:09:06.487Z,8.24
2023-02-11T22:11:34.894Z,8.18
2023-02-11T22:14:03.584Z,8.18
2023-02-11T22:16:32.143Z,8.16
2023-02-11T22:19:02.358Z,8.19
2023-02-11T22:21:30.501Z,8.22
2023-02-11T22:23:58.365Z,8.19
2023-02-11T22:26:27.719Z,8.19
2023-02-11T22:28:56.300Z,8.18
2023-02-11T22:31:30.691Z,8.19
2023-02-11T22:33:59.081Z,8.19
2023-02-11T22:36:29.296Z,8.19
2023-02-11T22:38:59.944Z,8.19
2023-02-11T22:41:27.902Z,8.22
2023-02-11T22:43:55.779Z,8.22
2023-02-11T22:46:24.499Z,8.22
2023-02-11T22:48:52.670Z,8.21
2023-02-11T22:51:24.879Z,8.19
2023-02-11T22:54:09.956Z,8.15
2023-02-11T22:56:37.835Z,8.13
2023-02-11T22:59:09.194Z,8.06
2023-02-11T23:01:37.258Z,8.02
2023-02-11T23:04:07.213Z,8.01
2023-02-11T23:06:35.584Z,7.92
2023-02-11T23:09:09.307Z,7.91
2023-02-11T23:11:37.259Z,7.87
2023-02-11T23:14:06.796Z,7.90
2023-02-11T23:16:35.848Z,7.78
2023-02-11T23:19:07.005Z,7.80
2023-02-11T23:21:38.096Z,7.71
2023-02-11T23:24:10.634Z,7.73
2023-02-11T23:26:40.789Z,7.71
2023-02-11T23:29:09.625Z,7.71
2023-02-11T23:31:40.373Z,7.66
2023-02-11T23:34:09.250Z,7.64
2023-02-11T23:36:37.626Z,7.64
2023-02-11T23:39:05.861Z,7.62
2023-02-11T23:41:33.763Z,7.56
2023-02-11T23:44:01.745Z,7.57
2023-02-11T23:46:29.849Z,7.50
2023-02-11T23:48:57.791Z,7.47
2023-02-11T23:51:25.961Z,7.43
2023-02-11T23:53:56.085Z,7.38
2023-02-11T23:56:26.534Z,7.29
2023-02-11T23:58:56.691Z,7.25
